sensor_id;sensor_type;location;lat;lon;timestamp;temperature;humidity
10802;DHT22;5453;50.852;7.102;2023-08-01T00:00:57;18.20;99.90
10802;DHT22;5453;50.852;7.102;2023-08-01T00:03:30;18.20;99.90
10802;DHT22;5453;50.852;7.102;2023-08-01T00:06:02;18.20;99.90
10802;DHT22;5453;50.852;7.102;2023-08-01T00:08:34;18.20;99.90
10802;DHT22;5453;50.852;7.102;2023-08-01T00:11:07;18.20;99.90
10802;DHT22;5453;50.852;7.102;2023-08-01T00:13:42;18.20;99.90
10802;DHT22;5453;50.852;7.102;2023-08-01T00:16:14;18.20;99.90
10802;DHT22;5453;50.852;7.102;2023-08-01T00:18:47;18.30;99.90
10802;DHT22;5453;50.852;7.102;2023-08-01T00:21:19;18.20;99.90
10802;DHT22;5453;50.852;7.102;2023-08-01T00:23:51;18.20;99.90
10802;DHT22;5453;50.852;7.102;2023-08-01T00:26:24;18.20;99.90
10802;DHT22;5453;50.852;7.102;2023-08-01T00:28:58;18.20;99.90
10802;DHT22;5453;50.852;7.102;2023-08-01T00:31:30;18.20;99.90
10802;DHT22;5453;50.852;7.102;2023-08-01T00:34:02;18.20;99.90
10802;DHT22;5453;50.852;7.102;2023-08-01T00:36:35;18.20;99.90
10802;DHT22;5453;50.852;7.102;2023-08-01T00:39:07;18.20;99.90
10802;DHT22;5453;50.852;7.102;2023-08-01T00:41:40;18.20;99.90
10802;DHT22;5453;50.852;7.102;2023-08-01T00:44:17;18.20;99.90
10802;DHT22;5453;50.852;7.102;2023-08-01T00:46:49;18.20;99.90
10802;DHT22;5453;50.852;7.102;2023-08-01T00:49:22;18.30;99.90
10802;DHT22;5453;50.852;7.102;2023-08-01T00:51:54;18.20;99.90
10802;DHT22;5453;50.852;7.102;2023-08-01T00:54:31;18.20;99.90
10802;DHT22;5453;50.852;7.102;2023-08-01T00:57:07;18.30;99.90
10802;DHT22;5453;50.852;7.102;2023-08-01T00:59:41;18.30;99.90
10802;DHT22;5453;50.852;7.102;2023-08-01T01:02:17;18.30;99.90
10802;DHT22;5453;50.852;7.102;2023-08-01T01:04:50;18.30;99.90
10802;DHT22;5453;50.852;7.102;2023-08-01T01:07:24;18.30;99.90
10802;DHT22;5453;50.852;7.102;2023-08-01T01:09:57;18.30;99.90
10802;DHT22;5453;50.852;7.102;2023-08-01T01:12:33;18.30;99.90
10802;DHT22;5453;50.852;7.102;2023-08-01T01:15:08;18.30;99.90
10802;DHT22;5453;50.852;7.102;2023-08-01T01:17:41;18.20;99.90
10802;DHT22;5453;50.852;7.102;2023-08-01T01:20:13;18.30;99.90
10802;DHT22;5453;50.852;7.102;2023-08-01T01:22:47;18.30;99.90
10802;DHT22;5453;50.852;7.102;2023-08-01T01:25:20;18.30;99.90
10802;DHT22;5453;50.852;7.102;2023-08-01T01:27:54;18.30;99.90
10802;DHT22;5453;50.852;7.102;2023-08-01T01:30:30;18.30;99.90
10802;DHT22;5453;50.852;7.102;2023-08-01T01:33:05;18.30;99.90
10802;DHT22;5453;50.852;7.102;2023-08-01T01:35:38;18.30;99.90
10802;DHT22;5453;50.852;7.102;2023-08-01T01:38:12;18.30;99.90
10802;DHT22;5453;50.852;7.102;2023-08-01T01:40:45;18.30;99.90
10802;DHT22;5453;50.852;7.102;2023-08-01T01:43:17;18.30;99.90
10802;DHT22;5453;50.852;7.102;2023-08-01T01:45:50;18.30;99.90
10802;DHT22;5453;50.852;7.102;2023-08-01T01:48:25;18.30;99.90
10802;DHT22;5453;50.852;7.102;2023-08-01T01:50:57;18.30;99.90
10802;DHT22;5453;50.852;7.102;2023-08-01T01:53:31;18.30;99.90
10802;DHT22;5453;50.852;7.102;2023-08-01T01:56:04;18.30;99.90
10802;DHT22;5453;50.852;7.102;2023-08-01T01:58:39;18.30;99.90
10802;DHT22;5453;50.852;7.102;2023-08-01T02:01:12;18.30;99.90
10802;DHT22;5453;50.852;7.102;2023-08-01T02:03:44;18.30;99.90
10802;DHT22;5453;50.852;7.102;2023-08-01T02:06:18;18.30;99.90
10802;DHT22;5453;50.852;7.102;2023-08-01T02:08:51;18.30;99.90
10802;DHT22;5453;50.852;7.102;2023-08-01T02:11:24;18.40;99.90
10802;DHT22;5453;50.852;7.102;2023-08-01T02:13:56;18.30;99.90
10802;DHT22;5453;50.852;7.102;2023-08-01T02:16:29;18.30;99.90
10802;DHT22;5453;50.852;7.102;2023-08-01T02:19:01;18.30;99.90
10802;DHT22;5453;50.852;7.102;2023-08-01T02:21:38;18.30;99.90
10802;DHT22;5453;50.852;7.102;2023-08-01T02:24:11;18.30;99.90
10802;DHT22;5453;50.852;7.102;2023-08-01T02:26:47;18.20;99.90
10802;DHT22;5453;50.852;7.102;2023-08-01T02:29:20;18.20;99.90
10802;DHT22;5453;50.852;7.102;2023-08-01T02:31:53;18.10;99.90
10802;DHT22;5453;50.852;7.102;2023-08-01T02:34:25;18.10;99.90
10802;DHT22;5453;50.852;7.102;2023-08-01T02:36:58;18.00;99.90
10802;DHT22;5453;50.852;7.102;2023-08-01T02:39:31;18.00;99.90
10802;DHT22;5453;50.852;7.102;2023-08-01T02:42:04;18.00;99.90
10802;DHT22;5453;50.852;7.102;2023-08-01T02:44:40;17.90;99.90
10802;DHT22;5453;50.852;7.102;2023-08-01T02:47:12;17.90;99.90
10802;DHT22;5453;50.852;7.102;2023-08-01T02:49:45;17.90;99.90
10802;DHT22;5453;50.852;7.102;2023-08-01T02:52:16;17.90;99.90
10802;DHT22;5453;50.852;7.102;2023-08-01T02:54:50;17.80;99.90
10802;DHT22;5453;50.852;7.102;2023-08-01T02:57:22;17.80;99.90
10802;DHT22;5453;50.852;7.102;2023-08-01T02:59:55;17.70;99.90
10802;DHT22;5453;50.852;7.102;2023-08-01T03:02:31;17.70;99.90
10802;DHT22;5453;50.852;7.102;2023-08-01T03:05:03;17.70;99.90
10802;DHT22;5453;50.852;7.102;2023-08-01T03:07:38;17.60;99.90
10802;DHT22;5453;50.852;7.102;2023-08-01T03:10:12;17.60;99.90
10802;DHT22;5453;50.852;7.102;2023-08-01T03:12:47;17.50;99.90
10802;DHT22;5453;50.852;7.102;2023-08-01T03:15:20;17.50;99.90
10802;DHT22;5453;50.852;7.102;2023-08-01T03:17:52;17.50;99.90
10802;DHT22;5453;50.852;7.102;2023-08-01T03:20:24;17.50;99.90
10802;DHT22;5453;50.852;7.102;2023-08-01T03:22:57;17.50;99.90
10802;DHT22;5453;50.852;7.102;2023-08-01T03:25:31;17.50;99.90
10802;DHT22;5453;50.852;7.102;2023-08-01T03:28:04;17.50;99.90
10802;DHT22;5453;50.852;7.102;2023-08-01T03:30:37;17.50;99.90
10802;DHT22;5453;50.852;7.102;2023-08-01T03:33:09;17.50;99.90
10802;DHT22;5453;50.852;7.102;2023-08-01T03:35:41;17.40;99.90
10802;DHT22;5453;50.852;7.102;2023-08-01T03:38:14;17.50;99.90
10802;DHT22;5453;50.852;7.102;2023-08-01T03:40:51;17.40;99.90
10802;DHT22;5453;50.852;7.102;2023-08-01T03:43:23;17.40;99.90
10802;DHT22;5453;50.852;7.102;2023-08-01T03:45:55;17.40;99.90
10802;DHT22;5453;50.852;7.102;2023-08-01T03:48:28;17.40;99.90
10802;DHT22;5453;50.852;7.102;2023-08-01T03:51:00;17.40;99.90
10802;DHT22;5453;50.852;7.102;2023-08-01T03:53:34;17.30;99.90
10802;DHT22;5453;50.852;7.102;2023-08-01T03:56:08;17.30;99.90
10802;DHT22;5453;50.852;7.102;2023-08-01T03:58:43;17.30;99.90
10802;DHT22;5453;50.852;7.102;2023-08-01T04:01:16;17.30;99.90
10802;DHT22;5453;50.852;7.102;2023-08-01T04:03:48;17.30;99.90
10802;DHT22;5453;50.852;7.102;2023-08-01T04:06:21;17.30;99.90
10802;DHT22;5453;50.852;7.102;2023-08-01T04:08:57;17.30;99.90
10802;DHT22;5453;50.852;7.102;2023-08-01T04:11:32;17.20;99.90
10802;DHT22;5453;50.852;7.102;2023-08-01T04:14:04;17.20;99.90
10802;DHT22;5453;50.852;7.102;2023-08-01T04:16:40;17.20;99.90
10802;DHT22;5453;50.852;7.102;2023-08-01T04:19:12;17.20;99.90
10802;DHT22;5453;50.852;7.102;2023-08-01T04:21:45;17.10;99.90
10802;DHT22;5453;50.852;7.102;2023-08-01T04:24:17;17.10;99.90
10802;DHT22;5453;50.852;7.102;2023-08-01T04:26:54;17.10;99.90
10802;DHT22;5453;50.852;7.102;2023-08-01T04:29:27;17.10;99.90
10802;DHT22;5453;50.852;7.102;2023-08-01T04:31:59;17.00;99.90
10802;DHT22;5453;50.852;7.102;2023-08-01T04:34:32;17.00;99.90
10802;DHT22;5453;50.852;7.102;2023-08-01T04:37:04;17.00;99.90
10802;DHT22;5453;50.852;7.102;2023-08-01T04:39:37;17.00;99.90
10802;DHT22;5453;50.852;7.102;2023-08-01T04:42:11;17.00;99.90
10802;DHT22;5453;50.852;7.102;2023-08-01T04:44:43;17.00;99.90
10802;DHT22;5453;50.852;7.102;2023-08-01T04:47:15;17.00;99.90
10802;DHT22;5453;50.852;7.102;2023-08-01T04:49:48;17.00;99.90
10802;DHT22;5453;50.852;7.102;2023-08-01T04:52:20;17.00;99.90
10802;DHT22;5453;50.852;7.102;2023-08-01T04:54:53;17.00;99.90
10802;DHT22;5453;50.852;7.102;2023-08-01T04:57:27;17.00;99.90
10802;DHT22;5453;50.852;7.102;2023-08-01T04:59:59;16.90;99.90
10802;DHT22;5453;50.852;7.102;2023-08-01T05:02:31;17.00;99.90
10802;DHT22;5453;50.852;7.102;2023-08-01T05:05:04;17.00;99.90
10802;DHT22;5453;50.852;7.102;2023-08-01T05:07:37;17.00;99.90
10802;DHT22;5453;50.852;7.102;2023-08-01T05:10:10;17.00;99.90
10802;DHT22;5453;50.852;7.102;2023-08-01T05:12:44;17.00;99.90
10802;DHT22;5453;50.852;7.102;2023-08-01T05:15:16;17.00;99.90
10802;DHT22;5453;50.852;7.102;2023-08-01T05:17:48;17.00;99.90
10802;DHT22;5453;50.852;7.102;2023-08-01T05:20:21;17.00;99.90
10802;DHT22;5453;50.852;7.102;2023-08-01T05:22:53;17.00;99.90
10802;DHT22;5453;50.852;7.102;2023-08-01T05:25:26;17.10;99.90
10802;DHT22;5453;50.852;7.102;2023-08-01T05:27:59;17.10;99.90
10802;DHT22;5453;50.852;7.102;2023-08-01T05:30:32;17.10;99.90
10802;DHT22;5453;50.852;7.102;2023-08-01T05:33:08;17.10;99.90
10802;DHT22;5453;50.852;7.102;2023-08-01T05:35:40;17.20;99.90
10802;DHT22;5453;50.852;7.102;2023-08-01T05:38:12;17.20;99.90
10802;DHT22;5453;50.852;7.102;2023-08-01T05:40:48;17.20;99.90
10802;DHT22;5453;50.852;7.102;2023-08-01T05:43:22;17.30;99.90
10802;DHT22;5453;50.852;7.102;2023-08-01T05:45:54;17.30;99.90
10802;DHT22;5453;50.852;7.102;2023-08-01T05:48:26;17.40;99.90
10802;DHT22;5453;50.852;7.102;2023-08-01T05:51:02;17.40;99.90
10802;DHT22;5453;50.852;7.102;2023-08-01T05:53:34;17.30;99.90
10802;DHT22;5453;50.852;7.102;2023-08-01T05:56:07;17.30;99.90
10802;DHT22;5453;50.852;7.102;2023-08-01T05:58:40;17.20;99.90
10802;DHT22;5453;50.852;7.102;2023-08-01T06:01:14;17.10;99.90
10802;DHT22;5453;50.852;7.102;2023-08-01T06:03:47;17.20;99.90
10802;DHT22;5453;50.852;7.102;2023-08-01T06:06:19;17.10;99.90
10802;DHT22;5453;50.852;7.102;2023-08-01T06:08:52;17.10;99.90
10802;DHT22;5453;50.852;7.102;2023-08-01T06:11:24;17.10;99.90
10802;DHT22;5453;50.852;7.102;2023-08-01T06:13:59;17.10;99.90
10802;DHT22;5453;50.852;7.102;2023-08-01T06:16:31;17.10;99.90
10802;DHT22;5453;50.852;7.102;2023-08-01T06:19:03;17.10;99.90
10802;DHT22;5453;50.852;7.102;2023-08-01T06:21:36;17.20;99.90
10802;DHT22;5453;50.852;7.102;2023-08-01T06:24:08;17.30;99.90
10802;DHT22;5453;50.852;7.102;2023-08-01T06:26:41;17.40;99.90
10802;DHT22;5453;50.852;7.102;2023-08-01T06:29:15;17.40;99.90
10802;DHT22;5453;50.852;7.102;2023-08-01T06:31:47;17.50;99.90
10802;DHT22;5453;50.852;7.102;2023-08-01T06:34:20;17.60;99.90
10802;DHT22;5453;50.852;7.102;2023-08-01T06:36:52;17.70;99.90
10802;DHT22;5453;50.852;7.102;2023-08-01T06:39:25;17.80;99.90
10802;DHT22;5453;50.852;7.102;2023-08-01T06:41:57;18.00;99.90
10802;DHT22;5453;50.852;7.102;2023-08-01T06:44:31;18.20;99.90
10802;DHT22;5453;50.852;7.102;2023-08-01T06:47:04;18.50;99.90
10802;DHT22;5453;50.852;7.102;2023-08-01T06:49:36;18.80;99.90
10802;DHT22;5453;50.852;7.102;2023-08-01T06:52:09;19.00;99.90
10802;DHT22;5453;50.852;7.102;2023-08-01T06:54:41;19.20;99.90
10802;DHT22;5453;50.852;7.102;2023-08-01T06:57:17;19.30;99.90
10802;DHT22;5453;50.852;7.102;2023-08-01T06:59:51;19.50;99.90
10802;DHT22;5453;50.852;7.102;2023-08-01T07:02:23;19.60;99.90
10802;DHT22;5453;50.852;7.102;2023-08-01T07:04:57;19.70;99.90
10802;DHT22;5453;50.852;7.102;2023-08-01T07:07:29;19.90;99.90
10802;DHT22;5453;50.852;7.102;2023-08-01T07:10:01;20.00;99.90
10802;DHT22;5453;50.852;7.102;2023-08-01T07:12:34;20.10;99.90
10802;DHT22;5453;50.852;7.102;2023-08-01T07:15:09;20.20;99.90
10802;DHT22;5453;50.852;7.102;2023-08-01T07:17:42;20.30;99.90
10802;DHT22;5453;50.852;7.102;2023-08-01T07:20:14;20.30;99.90
10802;DHT22;5453;50.852;7.102;2023-08-01T07:22:46;20.30;99.90
10802;DHT22;5453;50.852;7.102;2023-08-01T07:25:19;20.30;99.90
10802;DHT22;5453;50.852;7.102;2023-08-01T07:27:51;20.40;99.90
10802;DHT22;5453;50.852;7.102;2023-08-01T07:30:25;20.40;99.90
10802;DHT22;5453;50.852;7.102;2023-08-01T07:33:00;20.30;99.90
10802;DHT22;5453;50.852;7.102;2023-08-01T07:35:33;20.10;99.90
10802;DHT22;5453;50.852;7.102;2023-08-01T07:38:05;20.20;99.90
10802;DHT22;5453;50.852;7.102;2023-08-01T07:40:37;20.20;99.90
10802;DHT22;5453;50.852;7.102;2023-08-01T07:43:13;20.30;99.90
10802;DHT22;5453;50.852;7.102;2023-08-01T07:45:47;20.30;99.90
10802;DHT22;5453;50.852;7.102;2023-08-01T07:48:21;20.30;99.90
10802;DHT22;5453;50.852;7.102;2023-08-01T07:50:54;20.20;99.90
10802;DHT22;5453;50.852;7.102;2023-08-01T07:53:29;20.20;99.90
10802;DHT22;5453;50.852;7.102;2023-08-01T07:56:02;20.20;99.90
10802;DHT22;5453;50.852;7.102;2023-08-01T07:58:37;20.20;99.90
10802;DHT22;5453;50.852;7.102;2023-08-01T08:01:14;20.10;99.90
10802;DHT22;5453;50.852;7.102;2023-08-01T08:03:46;19.90;99.90
10802;DHT22;5453;50.852;7.102;2023-08-01T08:06:19;19.70;99.90
10802;DHT22;5453;50.852;7.102;2023-08-01T08:08:54;19.60;99.90
10802;DHT22;5453;50.852;7.102;2023-08-01T08:11:30;19.50;99.90
10802;DHT22;5453;50.852;7.102;2023-08-01T08:14:02;19.30;99.90
10802;DHT22;5453;50.852;7.102;2023-08-01T08:16:36;19.40;99.90
10802;DHT22;5453;50.852;7.102;2023-08-01T08:19:08;19.70;99.90
10802;DHT22;5453;50.852;7.102;2023-08-01T08:21:41;20.00;99.90
10802;DHT22;5453;50.852;7.102;2023-08-01T08:24:13;20.30;99.90
10802;DHT22;5453;50.852;7.102;2023-08-01T08:26:45;20.50;99.90
10802;DHT22;5453;50.852;7.102;2023-08-01T08:29:21;20.90;99.90
10802;DHT22;5453;50.852;7.102;2023-08-01T08:31:55;21.10;99.90
10802;DHT22;5453;50.852;7.102;2023-08-01T08:34:27;21.10;99.90
10802;DHT22;5453;50.852;7.102;2023-08-01T08:36:59;20.90;99.90
10802;DHT22;5453;50.852;7.102;2023-08-01T08:39:32;20.80;99.90
10802;DHT22;5453;50.852;7.102;2023-08-01T08:42:05;20.70;99.90
10802;DHT22;5453;50.852;7.102;2023-08-01T08:44:42;20.50;99.90
10802;DHT22;5453;50.852;7.102;2023-08-01T08:47:24;20.40;99.90
10802;DHT22;5453;50.852;7.102;2023-08-01T08:49:57;20.40;99.90
10802;DHT22;5453;50.852;7.102;2023-08-01T08:52:30;20.30;99.90
10802;DHT22;5453;50.852;7.102;2023-08-01T08:55:02;20.30;99.90
10802;DHT22;5453;50.852;7.102;2023-08-01T08:57:38;20.20;99.90
10802;DHT22;5453;50.852;7.102;2023-08-01T09:00:12;20.40;99.90
10802;DHT22;5453;50.852;7.102;2023-08-01T09:02:46;20.50;99.90
10802;DHT22;5453;50.852;7.102;2023-08-01T09:05:20;20.60;99.90
10802;DHT22;5453;50.852;7.102;2023-08-01T09:07:56;20.70;99.90
10802;DHT22;5453;50.852;7.102;2023-08-01T09:10:30;20.80;99.90
10802;DHT22;5453;50.852;7.102;2023-08-01T09:13:03;20.80;99.90
10802;DHT22;5453;50.852;7.102;2023-08-01T09:15:35;20.80;99.90
10802;DHT22;5453;50.852;7.102;2023-08-01T09:18:10;20.70;99.90
10802;DHT22;5453;50.852;7.102;2023-08-01T09:20:44;20.70;99.90
10802;DHT22;5453;50.852;7.102;2023-08-01T09:23:20;20.70;99.90
10802;DHT22;5453;50.852;7.102;2023-08-01T09:25:52;20.70;99.90
10802;DHT22;5453;50.852;7.102;2023-08-01T09:28:25;20.70;99.90
10802;DHT22;5453;50.852;7.102;2023-08-01T09:30:57;20.70;99.90
10802;DHT22;5453;50.852;7.102;2023-08-01T09:33:39;20.60;99.90
10802;DHT22;5453;50.852;7.102;2023-08-01T09:36:20;20.80;99.90
10802;DHT22;5453;50.852;7.102;2023-08-01T09:38:58;20.80;99.90
10802;DHT22;5453;50.852;7.102;2023-08-01T09:41:34;21.00;99.90
10802;DHT22;5453;50.852;7.102;2023-08-01T09:44:10;21.20;99.90
10802;DHT22;5453;50.852;7.102;2023-08-01T09:46:42;21.30;99.90
10802;DHT22;5453;50.852;7.102;2023-08-01T09:49:16;21.30;99.90
10802;DHT22;5453;50.852;7.102;2023-08-01T09:51:49;21.30;99.90
10802;DHT22;5453;50.852;7.102;2023-08-01T09:54:22;21.30;99.90
10802;DHT22;5453;50.852;7.102;2023-08-01T09:56:55;21.40;99.90
10802;DHT22;5453;50.852;7.102;2023-08-01T09:59:27;21.70;99.90
10802;DHT22;5453;50.852;7.102;2023-08-01T10:02:00;21.90;99.90
10802;DHT22;5453;50.852;7.102;2023-08-01T10:04:36;22.10;99.90
10802;DHT22;5453;50.852;7.102;2023-08-01T10:07:12;22.40;99.90
10802;DHT22;5453;50.852;7.102;2023-08-01T10:09:46;22.70;99.90
10802;DHT22;5453;50.852;7.102;2023-08-01T10:12:19;22.80;99.90
10802;DHT22;5453;50.852;7.102;2023-08-01T10:14:52;22.80;99.90
10802;DHT22;5453;50.852;7.102;2023-08-01T10:17:28;22.60;99.90
10802;DHT22;5453;50.852;7.102;2023-08-01T10:20:03;22.30;99.90
10802;DHT22;5453;50.852;7.102;2023-08-01T10:22:37;22.20;99.90
10802;DHT22;5453;50.852;7.102;2023-08-01T10:25:10;22.10;99.90
10802;DHT22;5453;50.852;7.102;2023-08-01T10:27:43;22.10;99.90
10802;DHT22;5453;50.852;7.102;2023-08-01T10:30:26;22.20;99.90
10802;DHT22;5453;50.852;7.102;2023-08-01T10:33:00;22.40;99.90
10802;DHT22;5453;50.852;7.102;2023-08-01T10:35:38;22.30;99.90
10802;DHT22;5453;50.852;7.102;2023-08-01T10:38:12;22.20;99.90
10802;DHT22;5453;50.852;7.102;2023-08-01T10:40:44;22.10;99.90
10802;DHT22;5453;50.852;7.102;2023-08-01T10:43:20;22.00;99.90
10802;DHT22;5453;50.852;7.102;2023-08-01T10:46:01;21.90;99.90
10802;DHT22;5453;50.852;7.102;2023-08-01T10:48:34;22.00;99.90
10802;DHT22;5453;50.852;7.102;2023-08-01T10:51:07;22.30;99.90
10802;DHT22;5453;50.852;7.102;2023-08-01T10:53:41;22.70;99.90
10802;DHT22;5453;50.852;7.102;2023-08-01T10:56:17;23.00;99.90
10802;DHT22;5453;50.852;7.102;2023-08-01T10:58:50;23.20;99.90
10802;DHT22;5453;50.852;7.102;2023-08-01T11:01:26;23.20;99.80
10802;DHT22;5453;50.852;7.102;2023-08-01T11:03:58;23.10;99.90
10802;DHT22;5453;50.852;7.102;2023-08-01T11:06:41;23.20;99.50
10802;DHT22;5453;50.852;7.102;2023-08-01T11:09:16;23.30;99.10
10802;DHT22;5453;50.852;7.102;2023-08-01T11:11:52;23.40;98.60
10802;DHT22;5453;50.852;7.102;2023-08-01T11:14:26;23.60;98.40
10802;DHT22;5453;50.852;7.102;2023-08-01T11:16:59;23.80;97.90
10802;DHT22;5453;50.852;7.102;2023-08-01T11:19:34;23.70;97.20
10802;DHT22;5453;50.852;7.102;2023-08-01T11:22:10;23.60;97.30
10802;DHT22;5453;50.852;7.102;2023-08-01T11:24:50;23.40;98.10
10802;DHT22;5453;50.852;7.102;2023-08-01T11:27:22;23.40;97.90
10802;DHT22;5453;50.852;7.102;2023-08-01T11:29:56;23.40;97.30
10802;DHT22;5453;50.852;7.102;2023-08-01T11:32:36;23.50;97.30
10802;DHT22;5453;50.852;7.102;2023-08-01T11:35:09;23.60;96.60
10802;DHT22;5453;50.852;7.102;2023-08-01T11:37:53;23.80;96.30
10802;DHT22;5453;50.852;7.102;2023-08-01T11:40:27;23.80;96.40
10802;DHT22;5453;50.852;7.102;2023-08-01T11:42:59;24.00;96.40
10802;DHT22;5453;50.852;7.102;2023-08-01T11:45:31;24.20;96.40
10802;DHT22;5453;50.852;7.102;2023-08-01T11:48:04;24.30;96.10
10802;DHT22;5453;50.852;7.102;2023-08-01T11:50:37;24.30;95.90
10802;DHT22;5453;50.852;7.102;2023-08-01T11:53:19;24.40;96.10
10802;DHT22;5453;50.852;7.102;2023-08-01T11:55:52;24.50;95.90
10802;DHT22;5453;50.852;7.102;2023-08-01T11:58:30;24.40;95.40
10802;DHT22;5453;50.852;7.102;2023-08-01T12:01:05;24.20;95.10
10802;DHT22;5453;50.852;7.102;2023-08-01T12:03:43;24.00;94.80
10802;DHT22;5453;50.852;7.102;2023-08-01T12:06:17;23.80;95.00
10802;DHT22;5453;50.852;7.102;2023-08-01T12:08:53;23.40;96.10
10802;DHT22;5453;50.852;7.102;2023-08-01T12:11:26;23.00;97.90
10802;DHT22;5453;50.852;7.102;2023-08-01T12:14:01;22.90;99.60
10802;DHT22;5453;50.852;7.102;2023-08-01T12:16:35;22.80;99.90
10802;DHT22;5453;50.852;7.102;2023-08-01T12:19:08;22.90;99.90
10802;DHT22;5453;50.852;7.102;2023-08-01T12:21:41;23.10;99.90
10802;DHT22;5453;50.852;7.102;2023-08-01T12:24:14;23.20;99.90
10802;DHT22;5453;50.852;7.102;2023-08-01T12:26:47;23.30;99.90
10802;DHT22;5453;50.852;7.102;2023-08-01T12:29:19;23.40;99.90
10802;DHT22;5453;50.852;7.102;2023-08-01T12:31:55;23.50;99.40
10802;DHT22;5453;50.852;7.102;2023-08-01T12:34:27;23.50;99.00
10802;DHT22;5453;50.852;7.102;2023-08-01T12:36:59;23.50;98.80
10802;DHT22;5453;50.852;7.102;2023-08-01T12:39:33;23.40;98.70
10802;DHT22;5453;50.852;7.102;2023-08-01T12:42:06;23.30;98.70
10802;DHT22;5453;50.852;7.102;2023-08-01T12:44:38;23.20;98.90
10802;DHT22;5453;50.852;7.102;2023-08-01T12:47:11;23.10;99.10
10802;DHT22;5453;50.852;7.102;2023-08-01T12:49:46;22.90;99.40
10802;DHT22;5453;50.852;7.102;2023-08-01T12:52:24;22.80;99.90
10802;DHT22;5453;50.852;7.102;2023-08-01T12:54:58;22.60;99.90
10802;DHT22;5453;50.852;7.102;2023-08-01T12:57:30;22.40;99.90
10802;DHT22;5453;50.852;7.102;2023-08-01T13:00:04;22.20;99.90
10802;DHT22;5453;50.852;7.102;2023-08-01T13:02:37;22.20;99.90
10802;DHT22;5453;50.852;7.102;2023-08-01T13:05:10;22.10;99.90
10802;DHT22;5453;50.852;7.102;2023-08-01T13:07:45;22.10;99.90
10802;DHT22;5453;50.852;7.102;2023-08-01T13:10:19;22.00;99.90
10802;DHT22;5453;50.852;7.102;2023-08-01T13:12:52;21.90;99.90
10802;DHT22;5453;50.852;7.102;2023-08-01T13:15:24;21.80;99.90
10802;DHT22;5453;50.852;7.102;2023-08-01T13:17:56;21.90;99.90
10802;DHT22;5453;50.852;7.102;2023-08-01T13:20:29;21.90;99.90
10802;DHT22;5453;50.852;7.102;2023-08-01T13:23:02;21.90;99.90
10802;DHT22;5453;50.852;7.102;2023-08-01T13:25:36;22.00;99.90
10802;DHT22;5453;50.852;7.102;2023-08-01T13:28:08;22.10;99.90
10802;DHT22;5453;50.852;7.102;2023-08-01T13:30:41;22.20;99.90
10802;DHT22;5453;50.852;7.102;2023-08-01T13:33:13;22.20;99.90
10802;DHT22;5453;50.852;7.102;2023-08-01T13:35:45;22.30;99.90
10802;DHT22;5453;50.852;7.102;2023-08-01T13:38:18;22.50;99.90
10802;DHT22;5453;50.852;7.102;2023-08-01T13:40:51;22.70;99.90
10802;DHT22;5453;50.852;7.102;2023-08-01T13:43:24;22.70;99.90
10802;DHT22;5453;50.852;7.102;2023-08-01T13:45:56;22.80;99.90
10802;DHT22;5453;50.852;7.102;2023-08-01T13:48:29;22.80;99.90
10802;DHT22;5453;50.852;7.102;2023-08-01T13:51:01;22.90;99.50
10802;DHT22;5453;50.852;7.102;2023-08-01T13:53:34;22.90;99.00
10802;DHT22;5453;50.852;7.102;2023-08-01T13:56:13;22.90;99.00
10802;DHT22;5453;50.852;7.102;2023-08-01T13:58:45;22.90;98.60
10802;DHT22;5453;50.852;7.102;2023-08-01T14:01:17;22.90;98.20
10802;DHT22;5453;50.852;7.102;2023-08-01T14:03:53;22.90;98.00
10802;DHT22;5453;50.852;7.102;2023-08-01T14:06:25;22.90;97.30
10802;DHT22;5453;50.852;7.102;2023-08-01T14:08:58;22.80;96.70
10802;DHT22;5453;50.852;7.102;2023-08-01T14:11:31;22.60;97.00
10802;DHT22;5453;50.852;7.102;2023-08-01T14:14:04;22.60;97.40
10802;DHT22;5453;50.852;7.102;2023-08-01T14:16:36;22.50;97.20
10802;DHT22;5453;50.852;7.102;2023-08-01T14:19:08;22.30;97.20
10802;DHT22;5453;50.852;7.102;2023-08-01T14:21:41;22.20;98.00
10802;DHT22;5453;50.852;7.102;2023-08-01T14:24:13;22.10;98.00
10802;DHT22;5453;50.852;7.102;2023-08-01T14:26:47;22.00;98.60
10802;DHT22;5453;50.852;7.102;2023-08-01T14:29:21;21.80;99.90
10802;DHT22;5453;50.852;7.102;2023-08-01T14:31:57;21.70;99.90
10802;DHT22;5453;50.852;7.102;2023-08-01T14:34:29;21.50;99.90
10802;DHT22;5453;50.852;7.102;2023-08-01T14:37:01;21.40;99.90
10802;DHT22;5453;50.852;7.102;2023-08-01T14:39:34;21.30;99.90
10802;DHT22;5453;50.852;7.102;2023-08-01T14:42:11;21.10;99.90
10802;DHT22;5453;50.852;7.102;2023-08-01T14:44:43;21.10;99.90
10802;DHT22;5453;50.852;7.102;2023-08-01T14:47:15;21.00;99.90
10802;DHT22;5453;50.852;7.102;2023-08-01T14:49:48;21.00;99.90
10802;DHT22;5453;50.852;7.102;2023-08-01T14:52:21;21.10;99.90
10802;DHT22;5453;50.852;7.102;2023-08-01T14:54:53;21.10;99.90
10802;DHT22;5453;50.852;7.102;2023-08-01T14:57:27;21.10;99.90
10802;DHT22;5453;50.852;7.102;2023-08-01T14:59:59;21.20;99.90
10802;DHT22;5453;50.852;7.102;2023-08-01T15:02:32;21.40;99.90
10802;DHT22;5453;50.852;7.102;2023-08-01T15:05:05;21.60;99.90
10802;DHT22;5453;50.852;7.102;2023-08-01T15:07:37;21.80;99.90
10802;DHT22;5453;50.852;7.102;2023-08-01T15:10:10;22.00;99.90
10802;DHT22;5453;50.852;7.102;2023-08-01T15:12:45;22.10;99.90
10802;DHT22;5453;50.852;7.102;2023-08-01T15:15:18;22.10;99.90
10802;DHT22;5453;50.852;7.102;2023-08-01T15:17:51;22.00;99.90
10802;DHT22;5453;50.852;7.102;2023-08-01T15:20:24;22.00;99.90
10802;DHT22;5453;50.852;7.102;2023-08-01T15:22:56;21.80;99.90
10802;DHT22;5453;50.852;7.102;2023-08-01T15:25:29;21.80;99.90
10802;DHT22;5453;50.852;7.102;2023-08-01T15:28:06;21.70;99.90
10802;DHT22;5453;50.852;7.102;2023-08-01T15:30:38;21.60;99.90
10802;DHT22;5453;50.852;7.102;2023-08-01T15:33:10;21.40;99.90
10802;DHT22;5453;50.852;7.102;2023-08-01T15:35:43;21.40;99.90
10802;DHT22;5453;50.852;7.102;2023-08-01T15:38:18;21.30;99.70
10802;DHT22;5453;50.852;7.102;2023-08-01T15:40:51;21.20;99.90
10802;DHT22;5453;50.852;7.102;2023-08-01T15:43:26;21.10;99.90
10802;DHT22;5453;50.852;7.102;2023-08-01T15:46:01;21.10;99.90
10802;DHT22;5453;50.852;7.102;2023-08-01T15:48:35;21.10;99.90
10802;DHT22;5453;50.852;7.102;2023-08-01T15:51:08;21.10;99.90
10802;DHT22;5453;50.852;7.102;2023-08-01T15:53:41;21.10;99.90
10802;DHT22;5453;50.852;7.102;2023-08-01T15:56:14;21.10;99.90
10802;DHT22;5453;50.852;7.102;2023-08-01T15:58:47;21.10;99.90
10802;DHT22;5453;50.852;7.102;2023-08-01T16:01:20;21.00;99.90
10802;DHT22;5453;50.852;7.102;2023-08-01T16:03:52;21.00;99.90
10802;DHT22;5453;50.852;7.102;2023-08-01T16:06:24;20.90;99.90
10802;DHT22;5453;50.852;7.102;2023-08-01T16:08:57;20.80;99.90
10802;DHT22;5453;50.852;7.102;2023-08-01T16:11:29;20.80;99.90
10802;DHT22;5453;50.852;7.102;2023-08-01T16:14:03;20.70;99.90
10802;DHT22;5453;50.852;7.102;2023-08-01T16:16:35;20.70;99.90
10802;DHT22;5453;50.852;7.102;2023-08-01T16:19:08;20.70;99.90
10802;DHT22;5453;50.852;7.102;2023-08-01T16:21:40;20.60;99.90
10802;DHT22;5453;50.852;7.102;2023-08-01T16:24:15;20.60;99.90